createdAt,value
2019-02-18T00:00:25.705Z,0
2019-02-18T00:01:25.897Z,0
2019-02-18T00:02:25.616Z,0
2019-02-18T00:03:25.610Z,0
2019-02-18T00:04:25.594Z,0
2019-02-18T00:05:25.806Z,0
2019-02-18T00:06:25.873Z,0
2019-02-18T00:07:25.254Z,0
2019-02-18T00:08:25.517Z,0
2019-02-18T00:09:26.004Z,0
2019-02-18T00:10:25.475Z,0
2019-02-18T00:11:25.467Z,0
2019-02-18T00:12:25.680Z,0
2019-02-18T00:13:25.676Z,0
2019-02-18T00:14:25.643Z,0
2019-02-18T00:15:25.678Z,0
2019-02-18T00:16:25.625Z,0
2019-02-18T00:17:25.683Z,0
2019-02-18T00:18:25.310Z,0
2019-02-18T00:19:25.292Z,0
2019-02-18T00:20:25.548Z,0
2019-02-18T00:21:25.236Z,0
2019-02-18T00:22:26.546Z,0
2019-02-18T00:23:25.725Z,0
2019-02-18T00:24:25.699Z,0
2019-02-18T00:25:25.247Z,0
2019-02-18T00:26:25.664Z,0
2019-02-18T00:27:25.725Z,0
2019-02-18T00:28:25.368Z,0
2019-02-18T00:29:25.403Z,0
2019-02-18T00:30:25.371Z,0
2019-02-18T00:31:25.338Z,0
2019-02-18T00:32:25.319Z,0
2019-02-18T00:33:25.545Z,0
2019-02-18T00:34:25.001Z,0
2019-02-18T00:35:24.990Z,0
2019-02-18T00:36:24.962Z,0
2019-02-18T00:37:33.938Z,0
2019-02-18T00:38:25.185Z,0
2019-02-18T00:39:25.207Z,0
2019-02-18T00:40:24.908Z,0
2019-02-18T00:41:25.099Z,0
2019-02-18T00:42:25.102Z,0
2019-02-18T00:43:25.324Z,0
2019-02-18T00:44:24.552Z,0
2019-02-18T00:45:25.322Z,0
2019-02-18T00:46:24.758Z,0
2019-02-18T00:47:24.996Z,0
2019-02-18T00:48:25.236Z,0
2019-02-18T00:49:24.699Z,0
2019-02-18T00:50:24.932Z,0
2019-02-18T00:51:24.407Z,0
2019-02-18T00:52:25.171Z,0
2019-02-18T00:53:24.358Z,0
2019-02-18T00:54:24.854Z,0
2019-02-18T00:55:24.652Z,0
2019-02-18T00:56:24.812Z,0
2019-02-18T00:57:24.807Z,0
2019-02-18T00:58:25.046Z,0
2019-02-18T00:59:24.534Z,0
2019-02-18T01:00:25.042Z,0
2019-02-18T01:01:24.201Z,0
2019-02-18T01:02:24.453Z,0
2019-02-18T01:03:24.180Z,0
2019-02-18T01:04:25.006Z,0
2019-02-18T01:05:24.714Z,0
2019-02-18T01:06:24.358Z,0
2019-02-18T01:07:34.202Z,0
2019-02-18T01:08:24.615Z,0
2019-02-18T01:09:24.561Z,0
2019-02-18T01:10:24.791Z,0
2019-02-18T01:11:24.306Z,0
2019-02-18T01:12:24.512Z,0
2019-02-18T01:13:24.228Z,0
2019-02-18T01:14:23.946Z,0
2019-02-18T01:15:24.436Z,0
2019-02-18T01:16:24.453Z,0
2019-02-18T01:17:24.401Z,0
2019-02-18T01:18:23.890Z,0
2019-02-18T01:19:24.359Z,0
2019-02-18T01:20:24.082Z,0
2019-02-18T01:21:24.581Z,0
2019-02-18T01:22:24.040Z,0
2019-02-18T01:23:24.361Z,0
2019-02-18T01:24:24.008Z,0
2019-02-18T01:25:24.272Z,0
2019-02-18T01:26:24.486Z,0
2019-02-18T01:27:23.501Z,0
2019-02-18T01:28:23.693Z,0
2019-02-18T01:29:23.644Z,0
2019-02-18T01:30:23.897Z,0
2019-02-18T01:31:23.921Z,0
2019-02-18T01:32:23.846Z,0
2019-02-18T01:33:24.259Z,0
2019-02-18T01:34:23.296Z,0
2019-02-18T01:35:23.792Z,0
2019-02-18T01:36:25.854Z,0
2019-02-18T01:37:24.009Z,0
2019-02-18T01:38:24.185Z,0
2019-02-18T01:39:23.726Z,0
2019-02-18T01:40:23.969Z,0
2019-02-18T01:41:23.412Z,0
2019-02-18T01:42:23.902Z,0
2019-02-18T01:43:23.739Z,0
2019-02-18T01:44:23.861Z,0
2019-02-18T01:45:24.082Z,0
2019-02-18T01:46:23.589Z,0
2019-02-18T01:47:23.284Z,0
2019-02-18T01:48:24.027Z,0
2019-02-18T01:49:23.264Z,0
2019-02-18T01:50:24.182Z,0
2019-02-18T01:51:23.723Z,0
2019-02-18T01:52:23.954Z,0
2019-02-18T01:53:23.218Z,0
2019-02-18T01:54:23.654Z,0
2019-02-18T01:55:23.376Z,0
2019-02-18T01:56:23.397Z,0
2019-02-18T01:57:23.341Z,0
2019-02-18T01:58:23.580Z,0
2019-02-18T01:59:23.557Z,0
2019-02-18T02:00:23.285Z,0
2019-02-18T02:01:23.265Z,0
2019-02-18T02:02:23.591Z,0
2019-02-18T02:03:25.080Z,0
2019-02-18T02:04:23.499Z,0
2019-02-18T02:05:23.440Z,0
2019-02-18T02:06:23.482Z,0
2019-02-18T02:07:23.158Z,0
2019-02-18T02:08:23.149Z,0
2019-02-18T02:09:22.844Z,0
2019-02-18T02:10:23.390Z,0
2019-02-18T02:11:23.323Z,0
2019-02-18T02:12:23.555Z,0
2019-02-18T02:13:23.540Z,0
2019-02-18T02:14:23.249Z,0
2019-02-18T02:15:23.230Z,0
2019-02-18T02:16:22.976Z,0
2019-02-18T02:17:22.985Z,0
2019-02-18T02:18:22.975Z,0
2019-02-18T02:19:22.895Z,0
2019-02-18T02:20:23.393Z,0
2019-02-18T02:21:23.114Z,0
2019-02-18T02:22:23.119Z,0
2019-02-18T02:23:23.145Z,0
2019-02-18T02:24:23.328Z,0
2019-02-18T02:25:23.037Z,0
2019-02-18T02:26:22.568Z,0
2019-02-18T02:27:22.547Z,0
2019-02-18T02:28:22.987Z,0
2019-02-18T02:29:22.703Z,0
2019-02-18T02:30:22.959Z,0
2019-02-18T02:31:22.946Z,0
2019-02-18T02:32:22.658Z,0
2019-02-18T02:33:22.925Z,0
2019-02-18T02:34:23.251Z,0
2019-02-18T02:35:23.091Z,0
2019-02-18T02:36:22.325Z,0
2019-02-18T02:37:23.068Z,0
2019-02-18T02:38:22.531Z,0
2019-02-18T02:39:22.780Z,0
2019-02-18T02:40:23.008Z,0
2019-02-18T02:41:22.486Z,0
2019-02-18T02:42:22.455Z,0
2019-02-18T02:43:22.714Z,0
2019-02-18T02:44:22.437Z,0
2019-02-18T02:45:22.936Z,0
2019-02-18T02:46:22.168Z,0
2019-02-18T02:47:22.147Z,0
2019-02-18T02:48:22.620Z,0
2019-02-18T02:49:22.804Z,0
2019-02-18T02:50:22.548Z,0
2019-02-18T02:51:21.999Z,0
2019-02-18T02:52:22.638Z,0
2019-02-18T02:53:22.218Z,0
2019-02-18T02:54:22.730Z,0
2019-02-18T02:55:22.438Z,0
2019-02-18T02:56:21.891Z,0
2019-02-18T02:57:22.390Z,0
2019-02-18T02:58:22.635Z,0
2019-02-18T02:59:22.362Z,0
2019-02-18T03:00:22.585Z,0
2019-02-18T03:01:22.125Z,0
2019-02-18T03:02:22.315Z,0
2019-02-18T03:03:22.059Z,0
2019-02-18T03:04:21.995Z,0
2019-02-18T03:05:22.047Z,0
2019-02-18T03:06:22.463Z,0
2019-02-18T03:07:22.200Z,0
2019-02-18T03:08:29.783Z,0
2019-02-18T03:09:22.407Z,0
2019-02-18T03:10:22.143Z,0
2019-02-18T03:11:21.844Z,0
2019-02-18T03:12:22.080Z,0
2019-02-18T03:13:21.819Z,0
2019-02-18T03:14:21.787Z,0
2019-02-18T03:15:22.019Z,0
2019-02-18T03:16:22.039Z,0
2019-02-18T03:17:21.821Z,0
2019-02-18T03:18:21.703Z,0
2019-02-18T03:19:21.949Z,0
2019-02-18T03:20:22.198Z,0
2019-02-18T03:21:21.646Z,0
2019-02-18T03:22:22.175Z,0
2019-02-18T03:23:21.594Z,0
2019-02-18T03:24:21.602Z,0
2019-02-18T03:25:21.868Z,0
2019-02-18T03:26:21.801Z,0
2019-02-18T03:27:21.253Z,0
2019-02-18T03:28:21.245Z,0
2019-02-18T03:29:21.734Z,0
2019-02-18T03:30:21.800Z,0
2019-02-18T03:31:21.454Z,0
2019-02-18T03:32:21.724Z,0
2019-02-18T03:33:21.958Z,0
2019-02-18T03:34:21.398Z,0
2019-02-18T03:35:21.108Z,0
2019-02-18T03:36:21.606Z,0
2019-02-18T03:37:21.871Z,0
2019-02-18T03:38:31.072Z,0
2019-02-18T03:39:21.532Z,0
2019-02-18T03:40:21.510Z,0
2019-02-18T03:41:21.249Z,0
2019-02-18T03:42:21.225Z,0
2019-02-18T03:43:21.706Z,0
2019-02-18T03:44:21.454Z,0
2019-02-18T03:45:21.425Z,0
2019-02-18T03:46:20.873Z,0
2019-02-18T03:47:21.405Z,0
2019-02-18T03:48:21.118Z,0
2019-02-18T03:49:21.195Z,0
2019-02-18T03:50:21.378Z,0
2019-02-18T03:51:21.298Z,0
2019-02-18T03:52:20.755Z,0
2019-02-18T03:53:21.494Z,0
2019-02-18T03:54:21.242Z,0
2019-02-18T03:55:20.447Z,0
2019-02-18T03:56:21.210Z,0
2019-02-18T03:57:21.425Z,0
2019-02-18T03:58:20.880Z,0
2019-02-18T03:59:20.615Z,0
2019-02-18T04:00:20.859Z,0
2019-02-18T04:01:21.085Z,0
2019-02-18T04:02:20.851Z,0
2019-02-18T04:03:21.168Z,0
2019-02-18T04:04:20.529Z,0
2019-02-18T04:05:21.007Z,0
2019-02-18T04:06:20.736Z,0
2019-02-18T04:07:20.713Z,0
2019-02-18T04:08:20.930Z,0
2019-02-18T04:09:20.670Z,0
2019-02-18T04:10:20.961Z,0
2019-02-18T04:11:20.889Z,0
2019-02-18T04:12:20.877Z,0
2019-02-18T04:13:20.925Z,0
2019-02-18T04:14:20.630Z,0
2019-02-18T04:15:21.061Z,0
2019-02-18T04:16:20.833Z,0
2019-02-18T04:17:20.815Z,0
2019-02-18T04:18:20.248Z,0
2019-02-18T04:19:20.475Z,0
2019-02-18T04:20:20.442Z,0
2019-02-18T04:21:20.554Z,0
2019-02-18T04:22:20.141Z,0
2019-02-18T04:23:20.414Z,0
2019-02-18T04:24:20.613Z,0
2019-02-18T04:25:20.486Z,0
2019-02-18T04:26:20.583Z,0
2019-02-18T04:27:20.361Z,0
2019-02-18T04:28:20.397Z,0
2019-02-18T04:29:20.304Z,0
2019-02-18T04:30:23.223Z,0
2019-02-18T04:31:20.238Z,0
2019-02-18T04:32:20.184Z,0
2019-02-18T04:33:20.177Z,0
2019-02-18T04:34:20.433Z,0
2019-02-18T04:35:20.379Z,0
2019-02-18T04:36:20.109Z,0
2019-02-18T04:37:20.343Z,0
2019-02-18T04:38:20.383Z,0
2019-02-18T04:39:20.568Z,0
2019-02-18T04:40:20.049Z,0
2019-02-18T04:41:19.871Z,0
2019-02-18T04:42:20.492Z,0
2019-02-18T04:43:19.968Z,0
2019-02-18T04:44:19.953Z,0
2019-02-18T04:45:20.175Z,0
2019-02-18T04:46:20.266Z,0
2019-02-18T04:47:20.390Z,0
2019-02-18T04:48:19.894Z,0
2019-02-18T04:49:20.381Z,0
2019-02-18T04:50:20.076Z,0
2019-02-18T04:51:19.566Z,0
2019-02-18T04:52:19.505Z,0
2019-02-18T04:53:19.761Z,0
2019-02-18T04:54:20.341Z,0
2019-02-18T04:55:19.706Z,0
2019-02-18T04:56:19.687Z,0
2019-02-18T04:57:19.935Z,0
2019-02-18T04:58:20.231Z,0
2019-02-18T04:59:19.886Z,0
2019-02-18T05:00:19.867Z,0
2019-02-18T05:01:19.602Z,0
2019-02-18T05:02:19.313Z,0
2019-02-18T05:03:20.063Z,0
2019-02-18T05:04:21.455Z,0
2019-02-18T05:05:19.524Z,0
2019-02-18T05:06:19.747Z,0
2019-02-18T05:07:19.218Z,0
2019-02-18T05:08:19.770Z,0
2019-02-18T05:09:19.738Z,0
2019-02-18T05:10:19.425Z,0
2019-02-18T05:11:19.687Z,0
2019-02-18T05:12:19.644Z,0
2019-02-18T05:13:19.892Z,0
2019-02-18T05:14:19.331Z,0
2019-02-18T05:15:19.326Z,0
2019-02-18T05:16:19.304Z,0
2019-02-18T05:17:19.272Z,0
2019-02-18T05:18:19.532Z,0
2019-02-18T05:19:19.482Z,0
2019-02-18T05:20:19.217Z,0
2019-02-18T05:21:18.656Z,0
2019-02-18T05:22:19.396Z,0
2019-02-18T05:23:19.405Z,0
2019-02-18T05:24:19.381Z,0
2019-02-18T05:25:20.298Z,0
2019-02-18T05:26:19.650Z,0
2019-02-18T05:27:19.366Z,0
2019-02-18T05:28:19.294Z,0
2019-02-18T05:29:19.312Z,0
2019-02-18T05:30:19.267Z,0
2019-02-18T05:31:19.490Z,0
2019-02-18T05:32:18.761Z,0
2019-02-18T05:33:18.687Z,0
2019-02-18T05:34:19.425Z,0
2019-02-18T05:35:18.626Z,0
2019-02-18T05:36:18.368Z,0
2019-02-18T05:37:19.349Z,0
2019-02-18T05:38:18.592Z,0
2019-02-18T05:39:27.465Z,0
2019-02-18T05:40:19.053Z,0
2019-02-18T05:41:18.788Z,0
2019-02-18T05:42:18.770Z,0
2019-02-18T05:43:18.789Z,0
2019-02-18T05:44:18.731Z,0
2019-02-18T05:45:18.947Z,0
2019-02-18T05:46:18.673Z,0
2019-02-18T05:47:19.164Z,0
2019-02-18T05:48:18.885Z,0
2019-02-18T05:49:18.356Z,0
2019-02-18T05:50:18.835Z,0
2019-02-18T05:51:19.140Z,0
2019-02-18T05:52:18.822Z,0
2019-02-18T05:53:19.197Z,0
2019-02-18T05:54:18.499Z,0
2019-02-18T05:55:18.230Z,0
2019-02-18T05:56:18.903Z,0
2019-02-18T05:57:18.171Z,0
2019-02-18T05:58:18.513Z,0
2019-02-18T05:59:18.782Z,0
2019-02-18T06:00:18.628Z,0
2019-02-18T06:01:18.094Z,0
2019-02-18T06:02:18.444Z,0
2019-02-18T06:03:18.578Z,0
2019-02-18T06:04:18.533Z,0
2019-02-18T06:05:18.337Z,0
2019-02-18T06:06:18.748Z,0
2019-02-18T06:07:18.533Z,0
2019-02-18T06:08:18.240Z,0
2019-02-18T06:09:28.430Z,0
2019-02-18T06:10:20.713Z,0
2019-02-18T06:11:17.926Z,0
2019-02-18T06:12:18.110Z,0
2019-02-18T06:13:18.089Z,0
2019-02-18T06:14:18.119Z,0
2019-02-18T06:15:18.577Z,0
2019-02-18T06:16:18.053Z,0
2019-02-18T06:17:18.514Z,0
2019-02-18T06:18:18.237Z,0
2019-02-18T06:19:17.985Z,0
2019-02-18T06:20:18.507Z,0
2019-02-18T06:21:18.631Z,0
2019-02-18T06:22:18.420Z,0
2019-02-18T06:23:17.970Z,0
2019-02-18T06:24:18.154Z,0
2019-02-18T06:25:18.180Z,0
2019-02-18T06:26:18.074Z,0
2019-02-18T06:27:18.092Z,0
2019-02-18T06:28:18.266Z,0
2019-02-18T06:29:18.058Z,0
2019-02-18T06:30:17.738Z,0
2019-02-18T06:31:18.255Z,0
2019-02-18T06:32:17.692Z,0
2019-02-18T06:33:17.764Z,0
2019-02-18T06:34:17.509Z,0
2019-02-18T06:35:17.906Z,0
2019-02-18T06:36:17.611Z,0
2019-02-18T06:37:17.632Z,0
2019-02-18T06:38:17.834Z,0
2019-02-18T06:39:17.835Z,5
2019-02-18T06:40:18.103Z,5
2019-02-18T06:41:18.048Z,5
2019-02-18T06:42:18.609Z,5
2019-02-18T06:43:17.234Z,5
2019-02-18T06:44:17.994Z,5
2019-02-18T06:45:19.009Z,5
2019-02-18T06:46:17.637Z,5
2019-02-18T06:47:17.369Z,5
2019-02-18T06:48:17.347Z,10
2019-02-18T06:49:17.877Z,10
2019-02-18T06:50:17.335Z,10
2019-02-18T06:51:19.592Z,10
2019-02-18T06:52:17.513Z,10
2019-02-18T06:53:17.238Z,10
2019-02-18T06:54:17.240Z,10
2019-02-18T06:55:17.490Z,10
2019-02-18T06:56:17.442Z,15
2019-02-18T06:57:17.146Z,15
2019-02-18T06:58:19.091Z,15
2019-02-18T06:59:17.121Z,15
2019-02-18T07:00:17.388Z,15
2019-02-18T07:01:17.084Z,15
2019-02-18T07:02:17.294Z,15
2019-02-18T07:03:18.529Z,20
2019-02-18T07:04:16.752Z,20
2019-02-18T07:05:16.469Z,20
2019-02-18T07:06:17.223Z,20
2019-02-18T07:07:16.940Z,20
2019-02-18T07:08:17.164Z,20
2019-02-18T07:09:17.152Z,25
2019-02-18T07:10:17.193Z,25
2019-02-18T07:11:16.368Z,25
2019-02-18T07:12:17.082Z,25
2019-02-18T07:13:17.085Z,25
2019-02-18T07:14:16.562Z,25
2019-02-18T07:15:16.792Z,25
2019-02-18T07:16:16.794Z,30
2019-02-18T07:17:17.515Z,30
2019-02-18T07:18:16.954Z,30
2019-02-18T07:19:16.681Z,30
2019-02-18T07:20:17.177Z,30
2019-02-18T07:21:16.383Z,30
2019-02-18T07:22:16.378Z,30
2019-02-18T07:23:17.306Z,35
2019-02-18T07:24:17.631Z,35
2019-02-18T07:25:16.310Z,35
2019-02-18T07:26:16.527Z,35
2019-02-18T07:27:16.768Z,35
2019-02-18T07:28:16.764Z,35
2019-02-18T07:29:16.222Z,35
2019-02-18T07:30:16.962Z,35
2019-02-18T07:31:16.972Z,40
2019-02-18T07:32:16.456Z,40
2019-02-18T07:33:16.684Z,40
2019-02-18T07:34:16.984Z,40
2019-02-18T07:35:16.628Z,40
2019-02-18T07:36:16.584Z,40
2019-02-18T07:37:17.049Z,40
2019-02-18T07:38:16.852Z,45
2019-02-18T07:39:16.519Z,45
2019-02-18T07:40:16.503Z,45
2019-02-18T07:41:15.701Z,45
2019-02-18T07:42:16.707Z,45
2019-02-18T07:43:16.209Z,45
2019-02-18T07:44:16.455Z,45
2019-02-18T07:45:16.161Z,45
2019-02-18T07:46:16.387Z,50
2019-02-18T07:47:16.366Z,50
2019-02-18T07:48:16.325Z,50
2019-02-18T07:49:16.587Z,50
2019-02-18T07:50:25.330Z,50
2019-02-18T07:51:16.552Z,50
2019-02-18T07:52:16.249Z,50
2019-02-18T07:53:15.730Z,50
2019-02-18T07:54:17.334Z,50
2019-02-18T07:55:16.186Z,55
2019-02-18T07:56:16.178Z,55
2019-02-18T07:57:16.142Z,55
2019-02-18T07:58:15.891Z,55
2019-02-18T07:59:16.169Z,55
2019-02-18T08:00:15.578Z,55
2019-02-18T08:01:16.078Z,55
2019-02-18T08:02:15.786Z,55
2019-02-18T08:03:16.017Z,55
2019-02-18T08:04:15.771Z,60
2019-02-18T08:05:15.761Z,60
2019-02-18T08:06:15.962Z,60
2019-02-18T08:07:15.676Z,60
2019-02-18T08:08:15.687Z,60
2019-02-18T08:09:15.648Z,60
2019-02-18T08:10:21.892Z,60
2019-02-18T08:11:15.866Z,65
2019-02-18T08:12:15.848Z,65
2019-02-18T08:13:15.566Z,65
2019-02-18T08:14:15.816Z,65
2019-02-18T08:15:16.036Z,65
2019-02-18T08:16:15.532Z,70
2019-02-18T08:17:15.485Z,70
2019-02-18T08:18:15.457Z,70
2019-02-18T08:19:15.718Z,70
2019-02-18T08:20:15.968Z,70
2019-02-18T08:21:15.151Z,75
2019-02-18T08:22:15.382Z,75
2019-02-18T08:23:15.867Z,75
2019-02-18T08:24:15.630Z,75
2019-02-18T08:25:15.346Z,80
2019-02-18T08:26:15.543Z,80
2019-02-18T08:27:15.300Z,80
2019-02-18T08:28:15.523Z,85
2019-02-18T08:29:14.987Z,95
2019-02-18T08:30:15.465Z,140
2019-02-18T08:31:15.480Z,145
2019-02-18T08:32:17.209Z,95
2019-02-18T08:33:14.645Z,90
2019-02-18T08:34:15.448Z,90
2019-02-18T08:35:14.866Z,90
2019-02-18T08:36:14.853Z,120
2019-02-18T08:37:15.350Z,145
2019-02-18T08:38:15.571Z,205
2019-02-18T08:39:15.600Z,275
2019-02-18T08:40:24.920Z,310
2019-02-18T08:41:15.026Z,330
2019-02-18T08:42:15.288Z,225
2019-02-18T08:43:15.490Z,180
2019-02-18T08:44:14.964Z,265
2019-02-18T08:45:14.933Z,365
2019-02-18T08:46:15.170Z,410
2019-02-18T08:47:15.429Z,420
2019-02-18T08:48:14.896Z,375
2019-02-18T08:49:14.890Z,270
2019-02-18T08:50:15.356Z,170
2019-02-18T08:51:14.839Z,125
2019-02-18T08:52:15.063Z,195
2019-02-18T08:53:14.856Z,270
2019-02-18T08:54:15.045Z,340
2019-02-18T08:55:15.088Z,330
2019-02-18T08:56:15.009Z,305
2019-02-18T08:57:14.483Z,310
2019-02-18T08:58:14.470Z,320
2019-02-18T08:59:15.963Z,360
2019-02-18T09:00:14.947Z,420
2019-02-18T09:01:14.920Z,370
2019-02-18T09:02:14.669Z,310
2019-02-18T09:03:14.902Z,335
2019-02-18T09:04:14.647Z,375
2019-02-18T09:05:15.642Z,400
2019-02-18T09:06:14.882Z,425
2019-02-18T09:07:14.907Z,430
2019-02-18T09:08:14.316Z,430
2019-02-18T09:09:14.810Z,420
2019-02-18T09:10:14.661Z,375
2019-02-18T09:11:14.271Z,450
2019-02-18T09:12:14.581Z,390
2019-02-18T09:13:15.107Z,330
2019-02-18T09:14:14.353Z,320
2019-02-18T09:15:16.870Z,245
2019-02-18T09:16:14.464Z,275
2019-02-18T09:17:14.462Z,325
2019-02-18T09:18:14.451Z,250
2019-02-18T09:19:14.682Z,190
2019-02-18T09:20:14.700Z,215
2019-02-18T09:21:14.661Z,260
2019-02-18T09:22:13.875Z,275
2019-02-18T09:23:14.130Z,255
2019-02-18T09:24:14.630Z,240
2019-02-18T09:25:14.599Z,230
2019-02-18T09:26:13.837Z,215
2019-02-18T09:27:14.603Z,230
2019-02-18T09:28:14.592Z,335
2019-02-18T09:29:14.354Z,365
2019-02-18T09:30:14.331Z,315
2019-02-18T09:31:14.016Z,210
2019-02-18T09:32:14.260Z,175
2019-02-18T09:33:14.330Z,170
2019-02-18T09:34:14.233Z,180
2019-02-18T09:35:14.484Z,265
2019-02-18T09:36:13.704Z,295
2019-02-18T09:37:14.425Z,245
2019-02-18T09:38:24.264Z,305
2019-02-18T09:39:13.921Z,405
2019-02-18T09:40:14.205Z,400
2019-02-18T09:41:14.648Z,285
2019-02-18T09:42:14.389Z,195
2019-02-18T09:43:13.922Z,195
2019-02-18T09:44:14.105Z,260
2019-02-18T09:45:17.120Z,420
2019-02-18T09:46:13.921Z,550
2019-02-18T09:47:14.647Z,540
2019-02-18T09:48:14.339Z,215
2019-02-18T09:49:14.619Z,130
2019-02-18T09:50:14.137Z,165
2019-02-18T09:51:14.034Z,330
2019-02-18T09:52:14.294Z,375
2019-02-18T09:53:14.014Z,440
2019-02-18T09:54:13.473Z,465
2019-02-18T09:55:14.118Z,310
2019-02-18T09:56:14.301Z,180
2019-02-18T09:57:14.210Z,200
2019-02-18T09:58:14.460Z,255
2019-02-18T09:59:14.183Z,310
2019-02-18T10:00:14.212Z,265
2019-02-18T10:01:14.173Z,195
2019-02-18T10:02:13.905Z,190
2019-02-18T10:03:14.150Z,185
2019-02-18T10:04:14.192Z,190
2019-02-18T10:05:14.387Z,205
2019-02-18T10:06:14.109Z,210
2019-02-18T10:07:14.362Z,185
2019-02-18T10:08:14.107Z,135
2019-02-18T10:09:14.079Z,175
2019-02-18T10:10:14.276Z,250
2019-02-18T10:11:13.798Z,320
2019-02-18T10:12:24.936Z,465
2019-02-18T10:13:13.515Z,385
2019-02-18T10:14:13.533Z,330
2019-02-18T10:15:13.789Z,525
2019-02-18T10:16:13.736Z,610
2019-02-18T10:17:14.249Z,590
2019-02-18T10:18:14.269Z,505
2019-02-18T10:19:13.697Z,440
2019-02-18T10:20:14.454Z,485
2019-02-18T10:21:13.684Z,510
2019-02-18T10:22:13.926Z,510
2019-02-18T10:23:14.040Z,525
2019-02-18T10:24:13.898Z,485
2019-02-18T10:25:13.924Z,495
2019-02-18T10:26:13.662Z,555
2019-02-18T10:27:13.612Z,370
2019-02-18T10:28:13.857Z,240
2019-02-18T10:29:13.148Z,310
2019-02-18T10:30:13.935Z,485
2019-02-18T10:31:13.904Z,515
2019-02-18T10:32:13.599Z,425
2019-02-18T10:33:13.310Z,530
2019-02-18T10:34:13.574Z,575
2019-02-18T10:35:13.803Z,615
2019-02-18T10:36:13.305Z,650
2019-02-18T10:37:13.820Z,545
2019-02-18T10:38:13.564Z,335
2019-02-18T10:39:13.838Z,460
2019-02-18T10:40:13.523Z,575
2019-02-18T10:41:16.381Z,530
2019-02-18T10:42:13.248Z,420
2019-02-18T10:43:13.751Z,340
2019-02-18T10:44:13.211Z,380
2019-02-18T10:45:13.557Z,370
2019-02-18T10:46:13.477Z,315
2019-02-18T10:47:14.025Z,435
2019-02-18T10:48:13.901Z,500
2019-02-18T10:49:28.380Z,470
2019-02-18T10:50:13.457Z,485
2019-02-18T10:51:13.479Z,510
2019-02-18T10:52:13.716Z,425
2019-02-18T10:53:14.067Z,245
2019-02-18T10:54:13.971Z,405
2019-02-18T10:55:14.588Z,600
2019-02-18T10:56:13.649Z,590
2019-02-18T10:57:13.150Z,580
2019-02-18T10:58:13.125Z,545
2019-02-18T10:59:13.640Z,450
2019-02-18T11:00:13.118Z,410
2019-02-18T11:01:13.354Z,580
2019-02-18T11:02:13.600Z,680
2019-02-18T11:03:14.158Z,560
2019-02-18T11:04:13.851Z,425
2019-02-18T11:05:13.579Z,375
2019-02-18T11:06:13.996Z,460
2019-02-18T11:07:13.569Z,520
2019-02-18T11:08:13.309Z,500
2019-02-18T11:09:13.281Z,460
2019-02-18T11:10:13.283Z,565
2019-02-18T11:11:23.896Z,530
2019-02-18T11:12:13.007Z,360
2019-02-18T11:13:13.331Z,220
2019-02-18T11:14:13.812Z,410
2019-02-18T11:15:13.252Z,560
2019-02-18T11:16:13.544Z,490
2019-02-18T11:17:13.744Z,440
2019-02-18T11:18:13.814Z,415
2019-02-18T11:19:13.499Z,405
2019-02-18T11:20:13.476Z,410
2019-02-18T11:21:13.717Z,345
2019-02-18T11:22:14.079Z,255
2019-02-18T11:23:13.703Z,320
2019-02-18T11:24:13.452Z,510
2019-02-18T11:25:13.487Z,660
2019-02-18T11:26:13.173Z,665
2019-02-18T11:27:13.170Z,520
2019-02-18T11:28:13.435Z,375
2019-02-18T11:29:13.416Z,355
2019-02-18T11:30:14.399Z,370
2019-02-18T11:31:13.137Z,365
2019-02-18T11:32:13.144Z,310
2019-02-18T11:33:13.626Z,305
2019-02-18T11:34:13.504Z,330
2019-02-18T11:35:13.374Z,350
2019-02-18T11:36:13.422Z,475
2019-02-18T11:37:16.276Z,540
2019-02-18T11:38:14.062Z,560
2019-02-18T11:39:12.814Z,550
2019-02-18T11:40:13.092Z,450
2019-02-18T11:41:13.562Z,450
2019-02-18T11:42:13.573Z,435
2019-02-18T11:43:12.802Z,375
2019-02-18T11:44:13.028Z,415
2019-02-18T11:45:13.126Z,565
2019-02-18T11:46:13.903Z,595
2019-02-18T11:47:13.531Z,530
2019-02-18T11:48:13.303Z,435
2019-02-18T11:49:13.549Z,445
2019-02-18T11:50:13.579Z,505
2019-02-18T11:51:13.028Z,485
2019-02-18T11:52:13.510Z,490
2019-02-18T11:53:13.039Z,430
2019-02-18T11:54:13.712Z,380
2019-02-18T11:55:13.566Z,360
2019-02-18T11:56:13.465Z,380
2019-02-18T11:57:13.247Z,475
2019-02-18T11:58:13.511Z,600
2019-02-18T11:59:12.742Z,560
2019-02-18T12:00:13.228Z,575
2019-02-18T12:01:13.213Z,665
2019-02-18T12:02:13.609Z,705
2019-02-18T12:03:21.998Z,760
2019-02-18T12:04:12.944Z,770
2019-02-18T12:05:12.941Z,775
2019-02-18T12:06:13.193Z,825
2019-02-18T12:07:13.188Z,885
2019-02-18T12:08:12.680Z,910
2019-02-18T12:09:13.295Z,920
2019-02-18T12:10:13.876Z,920
2019-02-18T12:11:13.456Z,825
2019-02-18T12:12:13.413Z,770
2019-02-18T12:13:12.937Z,820
2019-02-18T12:14:12.908Z,770
2019-02-18T12:15:13.161Z,795
2019-02-18T12:16:12.629Z,860
2019-02-18T12:17:22.654Z,865
2019-02-18T12:18:13.816Z,885
2019-02-18T12:19:12.940Z,870
2019-02-18T12:20:13.112Z,835
2019-02-18T12:21:12.867Z,815
2019-02-18T12:22:14.547Z,895
2019-02-18T12:23:13.347Z,950
2019-02-18T12:24:13.380Z,985
2019-02-18T12:25:12.940Z,960
2019-02-18T12:26:13.096Z,820
2019-02-18T12:27:12.846Z,770
2019-02-18T12:28:13.133Z,830
2019-02-18T12:29:12.684Z,920
2019-02-18T12:30:12.996Z,915
2019-02-18T12:31:12.842Z,895
2019-02-18T12:32:13.840Z,885
2019-02-18T12:33:14.498Z,895
2019-02-18T12:34:13.228Z,910
2019-02-18T12:35:12.813Z,890
2019-02-18T12:36:13.054Z,860
2019-02-18T12:37:12.542Z,865
2019-02-18T12:38:13.076Z,880
2019-02-18T12:39:12.816Z,890
2019-02-18T12:40:13.814Z,885
2019-02-18T12:41:12.626Z,890
2019-02-18T12:42:13.343Z,915
2019-02-18T12:43:12.799Z,925
2019-02-18T12:44:12.526Z,920
2019-02-18T12:45:13.089Z,920
2019-02-18T12:46:22.822Z,915
2019-02-18T12:47:12.809Z,910
2019-02-18T12:48:13.992Z,905
2019-02-18T12:49:13.084Z,900
2019-02-18T12:50:13.150Z,910
2019-02-18T12:51:12.591Z,900
2019-02-18T12:52:13.374Z,925
2019-02-18T12:53:12.897Z,955
2019-02-18T12:54:14.947Z,945
2019-02-18T12:55:14.471Z,905
2019-02-18T12:56:13.329Z,880
2019-02-18T12:57:12.589Z,860
2019-02-18T12:58:13.334Z,855
2019-02-18T12:59:13.327Z,850
2019-02-18T13:00:14.318Z,855
2019-02-18T13:01:12.819Z,850
2019-02-18T13:02:13.508Z,840
2019-02-18T13:03:13.077Z,840
2019-02-18T13:04:12.933Z,855
2019-02-18T13:05:13.156Z,860
2019-02-18T13:06:12.823Z,880
2019-02-18T13:07:13.422Z,875
2019-02-18T13:08:13.355Z,865
2019-02-18T13:09:14.023Z,855
2019-02-18T13:10:15.615Z,850
2019-02-18T13:11:12.825Z,855
2019-02-18T13:12:12.822Z,855
2019-02-18T13:13:12.800Z,840
2019-02-18T13:14:13.118Z,820
2019-02-18T13:15:12.859Z,835
2019-02-18T13:16:13.630Z,855
2019-02-18T13:17:13.588Z,840
2019-02-18T13:18:12.535Z,825
2019-02-18T13:19:13.970Z,820
2019-02-18T13:20:12.862Z,840
2019-02-18T13:21:12.847Z,860
2019-02-18T13:22:13.236Z,830
2019-02-18T13:23:13.257Z,800
2019-02-18T13:24:14.092Z,790
2019-02-18T13:25:12.540Z,810
2019-02-18T13:26:12.798Z,825
2019-02-18T13:27:13.291Z,820
2019-02-18T13:28:17.601Z,805
2019-02-18T13:29:13.123Z,810
2019-02-18T13:30:12.771Z,810
2019-02-18T13:31:13.452Z,805
2019-02-18T13:32:12.867Z,800
2019-02-18T13:33:13.038Z,795
2019-02-18T13:34:13.289Z,770
2019-02-18T13:35:12.780Z,765
2019-02-18T13:36:13.052Z,785
2019-02-18T13:37:13.198Z,750
2019-02-18T13:38:12.792Z,715
2019-02-18T13:39:13.977Z,725
2019-02-18T13:40:13.330Z,745
2019-02-18T13:41:12.768Z,765
2019-02-18T13:42:17.056Z,755
2019-02-18T13:43:12.776Z,755
2019-02-18T13:44:12.518Z,760
2019-02-18T13:45:12.808Z,750
2019-02-18T13:46:13.032Z,740
2019-02-18T13:47:13.458Z,725
2019-02-18T13:48:12.775Z,725
2019-02-18T13:49:12.806Z,730
2019-02-18T13:50:12.835Z,735
2019-02-18T13:51:12.520Z,730
2019-02-18T13:52:13.073Z,710
2019-02-18T13:53:13.046Z,700
2019-02-18T13:54:13.174Z,700
2019-02-18T13:55:13.157Z,700
2019-02-18T13:56:12.767Z,700
2019-02-18T13:57:19.804Z,705
2019-02-18T13:58:13.043Z,700
2019-02-18T13:59:12.820Z,680
2019-02-18T14:00:12.782Z,675
2019-02-18T14:01:12.772Z,685
2019-02-18T14:02:13.762Z,660
2019-02-18T14:03:13.286Z,650
2019-02-18T14:04:13.049Z,645
2019-02-18T14:05:12.787Z,625
2019-02-18T14:06:13.012Z,610
2019-02-18T14:07:12.526Z,605
2019-02-18T14:08:12.779Z,585
2019-02-18T14:09:13.288Z,590
2019-02-18T14:10:13.972Z,580
2019-02-18T14:11:12.746Z,540
2019-02-18T14:12:20.865Z,520
2019-02-18T14:13:13.257Z,510
2019-02-18T14:14:12.490Z,505
2019-02-18T14:15:12.995Z,465
2019-02-18T14:16:13.270Z,415
2019-02-18T14:17:13.300Z,420